sensor_id;sensor_type;location;lat;lon;timestamp;pressure;altitude;pressure_sealevel;temperature;humidity
78149;BME280;67396;42.664;23.382;2023-03-24T00:00:05;95045.34;;;8.76;64.85
78149;BME280;67396;42.664;23.382;2023-03-24T00:02:35;95038.34;;;8.78;64.37
78149;BME280;67396;42.664;23.382;2023-03-24T00:05:03;95041.06;;;8.78;63.90
78149;BME280;67396;42.664;23.382;2023-03-24T00:07:30;95030.91;;;8.79;63.87
78149;BME280;67396;42.664;23.382;2023-03-24T00:09:58;95039.22;;;8.86;63.44
78149;BME280;67396;42.664;23.382;2023-03-24T00:12:23;95040.81;;;8.90;63.23
78149;BME280;67396;42.664;23.382;2023-03-24T00:14:49;95032.25;;;8.92;63.25
78149;BME280;67396;42.664;23.382;2023-03-24T00:17:19;95036.97;;;8.95;63.45
78149;BME280;67396;42.664;23.382;2023-03-24T00:19:45;95029.50;;;8.92;63.22
78149;BME280;67396;42.664;23.382;2023-03-24T00:22:11;95032.25;;;8.92;63.04
78149;BME280;67396;42.664;23.382;2023-03-24T00:24:40;95036.56;;;8.93;63.13
78149;BME280;67396;42.664;23.382;2023-03-24T00:27:06;95043.94;;;8.89;63.67
78149;BME280;67396;42.664;23.382;2023-03-24T00:29:32;95041.25;;;8.92;63.34
78149;BME280;67396;42.664;23.382;2023-03-24T00:31:58;95042.91;;;9.00;63.29
78149;BME280;67396;42.664;23.382;2023-03-24T00:34:24;95040.16;;;9.00;62.77
78149;BME280;67396;42.664;23.382;2023-03-24T00:36:50;95039.28;;;8.63;63.53
78149;BME280;67396;42.664;23.382;2023-03-24T00:39:17;95040.41;;;8.58;63.98
78149;BME280;67396;42.664;23.382;2023-03-24T00:41:47;95042.44;;;8.65;62.94
78149;BME280;67396;42.664;23.382;2023-03-24T00:44:14;95037.41;;;8.67;63.07
78149;BME280;67396;42.664;23.382;2023-03-24T00:46:51;95022.78;;;8.56;62.72
78149;BME280;67396;42.664;23.382;2023-03-24T00:49:21;95034.50;;;8.56;62.23
78149;BME280;67396;42.664;23.382;2023-03-24T00:52:12;95030.03;;;8.45;63.18
78149;BME280;67396;42.664;23.382;2023-03-24T00:54:38;95025.31;;;8.42;62.84
78149;BME280;67396;42.664;23.382;2023-03-24T00:57:08;95023.03;;;8.21;63.56
78149;BME280;67396;42.664;23.382;2023-03-24T00:59:37;95022.75;;;8.29;63.34
78149;BME280;67396;42.664;23.382;2023-03-24T01:02:08;95011.72;;;8.22;63.49
78149;BME280;67396;42.664;23.382;2023-03-24T01:04:39;95021.16;;;8.25;63.22
78149;BME280;67396;42.664;23.382;2023-03-24T01:07:08;95026.28;;;8.30;63.01
78149;BME280;67396;42.664;23.382;2023-03-24T01:09:36;95029.34;;;8.25;63.20
78149;BME280;67396;42.664;23.382;2023-03-24T01:12:03;95021.88;;;8.22;62.65
78149;BME280;67396;42.664;23.382;2023-03-24T01:14:31;95018.50;;;8.06;63.74
78149;BME280;67396;42.664;23.382;2023-03-24T01:16:57;95020.22;;;7.91;64.04
78149;BME280;67396;42.664;23.382;2023-03-24T01:19:23;95019.34;;;8.10;63.22
78149;BME280;67396;42.664;23.382;2023-03-24T01:21:50;95019.34;;;8.10;63.51
78149;BME280;67396;42.664;23.382;2023-03-24T01:24:16;95016.25;;;8.11;62.91
78149;BME280;67396;42.664;23.382;2023-03-24T01:26:42;95015.63;;;8.21;62.93
78149;BME280;67396;42.664;23.382;2023-03-24T01:29:08;95012.88;;;8.21;62.56
78149;BME280;67396;42.664;23.382;2023-03-24T01:31:35;95015.44;;;8.11;62.83
78149;BME280;67396;42.664;23.382;2023-03-24T01:34:01;95014.22;;;7.82;63.76
78149;BME280;67396;42.664;23.382;2023-03-24T01:36:26;95019.19;;;7.99;63.15
78149;BME280;67396;42.664;23.382;2023-03-24T01:38:52;95018.50;;;7.83;63.61
78149;BME280;67396;42.664;23.382;2023-03-24T01:41:17;95012.06;;;7.94;62.91
78149;BME280;67396;42.664;23.382;2023-03-24T01:43:43;95015.16;;;7.93;63.29
78149;BME280;67396;42.664;23.382;2023-03-24T01:46:18;95012.94;;;7.99;63.05
78149;BME280;67396;42.664;23.382;2023-03-24T01:51:20;95019.00;;;7.88;63.14
78149;BME280;67396;42.664;23.382;2023-03-24T01:54:01;95016.41;;;7.73;63.31
78149;BME280;67396;42.664;23.382;2023-03-24T01:56:29;95008.16;;;7.69;63.60
78149;BME280;67396;42.664;23.382;2023-03-24T01:58:59;95015.28;;;7.74;63.96
78149;BME280;67396;42.664;23.382;2023-03-24T02:01:28;95011.91;;;7.61;63.65
78149;BME280;67396;42.664;23.382;2023-03-24T02:03:56;95023.91;;;7.56;63.91
78149;BME280;67396;42.664;23.382;2023-03-24T02:06:23;95030.50;;;7.52;64.39
78149;BME280;67396;42.664;23.382;2023-03-24T02:08:55;95027.97;;;7.21;65.51
78149;BME280;67396;42.664;23.382;2023-03-24T02:11:23;95033.81;;;7.00;66.43
78149;BME280;67396;42.664;23.382;2023-03-24T02:13:49;95029.56;;;7.02;66.59
78149;BME280;67396;42.664;23.382;2023-03-24T02:24:42;95036.31;;;7.08;66.51
78149;BME280;67396;42.664;23.382;2023-03-24T02:36:17;95035.53;;;7.50;66.01
78149;BME280;67396;42.664;23.382;2023-03-24T02:50:34;95006.88;;;7.63;64.63
78149;BME280;67396;42.664;23.382;2023-03-24T02:55:43;95003.81;;;7.23;65.71
78149;BME280;67396;42.664;23.382;2023-03-24T02:58:16;94999.22;;;7.27;65.43
78149;BME280;67396;42.664;23.382;2023-03-24T03:00:51;94992.59;;;7.28;65.46
78149;BME280;67396;42.664;23.382;2023-03-24T03:03:31;94995.22;;;7.21;65.32
78149;BME280;67396;42.664;23.382;2023-03-24T03:06:10;94995.84;;;7.14;65.79
78149;BME280;67396;42.664;23.382;2023-03-24T03:08:38;94991.63;;;7.16;65.81
78149;BME280;67396;42.664;23.382;2023-03-24T03:11:07;94996.16;;;7.09;66.30
78149;BME280;67396;42.664;23.382;2023-03-24T03:13:39;94989.44;;;7.03;66.31
78149;BME280;67396;42.664;23.382;2023-03-24T03:16:13;94995.50;;;6.96;66.74
78149;BME280;67396;42.664;23.382;2023-03-24T03:18:59;94993.34;;;7.05;66.32
78149;BME280;67396;42.664;23.382;2023-03-24T03:21:32;95000.53;;;7.13;65.48
78149;BME280;67396;42.664;23.382;2023-03-24T03:24:13;94993.00;;;7.07;66.23
78149;BME280;67396;42.664;23.382;2023-03-24T03:26:44;95001.50;;;7.25;65.04
78149;BME280;67396;42.664;23.382;2023-03-24T03:29:21;95002.22;;;7.22;65.38
78149;BME280;67396;42.664;23.382;2023-03-24T03:32:00;94997.31;;;7.08;65.94
78149;BME280;67396;42.664;23.382;2023-03-24T03:40:04;94976.94;;;6.63;67.17
78149;BME280;67396;42.664;23.382;2023-03-24T03:42:33;94980.59;;;6.52;67.47
78149;BME280;67396;42.664;23.382;2023-03-24T03:44:59;94980.31;;;6.76;66.76
78149;BME280;67396;42.664;23.382;2023-03-24T03:47:25;94985.63;;;6.88;65.48
78149;BME280;67396;42.664;23.382;2023-03-24T03:49:51;94999.25;;;6.88;65.25
78149;BME280;67396;42.664;23.382;2023-03-24T03:52:17;94999.44;;;6.76;64.30
78149;BME280;67396;42.664;23.382;2023-03-24T03:54:43;94999.84;;;6.78;64.27
78149;BME280;67396;42.664;23.382;2023-03-24T03:57:10;95000.22;;;6.57;64.96
78149;BME280;67396;42.664;23.382;2023-03-24T03:59:38;94997.84;;;6.56;65.32
78149;BME280;67396;42.664;23.382;2023-03-24T04:02:27;94995.19;;;6.59;65.19
78149;BME280;67396;42.664;23.382;2023-03-24T04:08:44;95015.91;;;6.64;65.71
78149;BME280;67396;42.664;23.382;2023-03-24T04:20:41;95003.28;;;6.56;65.84
78149;BME280;67396;42.664;23.382;2023-03-24T04:23:29;95014.09;;;6.52;65.51
78149;BME280;67396;42.664;23.382;2023-03-24T04:26:17;95012.91;;;5.99;65.95
78149;BME280;67396;42.664;23.382;2023-03-24T04:29:11;95017.84;;;5.46;67.87
78149;BME280;67396;42.664;23.382;2023-03-24T04:31:47;95022.19;;;4.76;70.25
78149;BME280;67396;42.664;23.382;2023-03-24T04:34:23;95021.19;;;4.68;71.21
78149;BME280;67396;42.664;23.382;2023-03-24T04:37:20;95018.16;;;4.58;71.79
78149;BME280;67396;42.664;23.382;2023-03-24T04:39:48;95021.41;;;4.47;72.98
78149;BME280;67396;42.664;23.382;2023-03-24T04:42:21;95024.91;;;4.48;72.93
78149;BME280;67396;42.664;23.382;2023-03-24T04:44:48;95032.97;;;4.32;73.57
78149;BME280;67396;42.664;23.382;2023-03-24T04:47:19;95038.75;;;4.31;73.62
78149;BME280;67396;42.664;23.382;2023-03-24T04:49:45;95037.84;;;4.39;73.13
78149;BME280;67396;42.664;23.382;2023-03-24T04:52:10;95036.72;;;4.28;73.18
78149;BME280;67396;42.664;23.382;2023-03-24T04:54:36;95046.91;;;4.19;73.82
78149;BME280;67396;42.664;23.382;2023-03-24T04:57:01;95051.72;;;4.49;73.63
78149;BME280;67396;42.664;23.382;2023-03-24T04:59:28;95048.03;;;4.70;72.15
78149;BME280;67396;42.664;23.382;2023-03-24T05:01:55;95041.06;;;4.84;71.73
78149;BME280;67396;42.664;23.382;2023-03-24T05:04:23;95056.25;;;4.85;71.31
78149;BME280;67396;42.664;23.382;2023-03-24T05:06:49;95054.38;;;5.02;70.63
78149;BME280;67396;42.664;23.382;2023-03-24T05:09:18;95045.03;;;5.15;69.86
78149;BME280;67396;42.664;23.382;2023-03-24T05:11:46;95052.56;;;5.06;69.95
78149;BME280;67396;42.664;23.382;2023-03-24T05:14:12;95048.38;;;5.24;69.43
78149;BME280;67396;42.664;23.382;2023-03-24T05:16:37;95053.94;;;5.43;68.59
78149;BME280;67396;42.664;23.382;2023-03-24T05:19:03;95058.59;;;5.58;68.78
78149;BME280;67396;42.664;23.382;2023-03-24T05:21:29;95047.34;;;6.07;66.71
78149;BME280;67396;42.664;23.382;2023-03-24T05:23:54;95055.19;;;6.09;66.56
78149;BME280;67396;42.664;23.382;2023-03-24T05:26:20;95055.09;;;5.89;66.83
78149;BME280;67396;42.664;23.382;2023-03-24T05:28:45;95054.91;;;5.82;67.42
78149;BME280;67396;42.664;23.382;2023-03-24T05:31:11;95055.56;;;5.91;67.43
78149;BME280;67396;42.664;23.382;2023-03-24T05:33:36;95054.78;;;6.07;67.20
78149;BME280;67396;42.664;23.382;2023-03-24T05:36:02;95054.97;;;5.98;67.03
78149;BME280;67396;42.664;23.382;2023-03-24T05:38:28;95060.91;;;6.19;66.47
78149;BME280;67396;42.664;23.382;2023-03-24T05:40:58;95055.06;;;6.36;66.08
78149;BME280;67396;42.664;23.382;2023-03-24T05:43:24;95061.66;;;6.35;65.34
78149;BME280;67396;42.664;23.382;2023-03-24T05:45:50;95063.22;;;6.36;65.56
78149;BME280;67396;42.664;23.382;2023-03-24T05:48:16;95056.06;;;6.13;66.72
78149;BME280;67396;42.664;23.382;2023-03-24T05:50:41;95058.25;;;6.58;65.87
78149;BME280;67396;42.664;23.382;2023-03-24T05:53:07;95059.38;;;6.92;64.38
78149;BME280;67396;42.664;23.382;2023-03-24T05:55:32;95057.03;;;7.32;78.49
78149;BME280;67396;42.664;23.382;2023-03-24T05:57:59;95047.56;;;8.66;78.57
78149;BME280;67396;42.664;23.382;2023-03-24T06:00:28;95056.88;;;9.99;58.51
78149;BME280;67396;42.664;23.382;2023-03-24T06:02:55;95060.63;;;10.83;55.87
78149;BME280;67396;42.664;23.382;2023-03-24T06:05:21;95052.31;;;10.69;54.58
78149;BME280;67396;42.664;23.382;2023-03-24T06:07:46;95057.53;;;10.88;53.03
78149;BME280;67396;42.664;23.382;2023-03-24T06:10:12;95059.94;;;10.97;53.06
78149;BME280;67396;42.664;23.382;2023-03-24T06:12:39;95069.16;;;11.40;53.88
78149;BME280;67396;42.664;23.382;2023-03-24T06:15:25;95068.25;;;11.11;52.87
78149;BME280;67396;42.664;23.382;2023-03-24T06:17:52;95067.91;;;11.26;53.44
78149;BME280;67396;42.664;23.382;2023-03-24T06:20:19;95062.88;;;11.46;53.47
78149;BME280;67396;42.664;23.382;2023-03-24T06:22:45;95067.13;;;11.22;53.58
78149;BME280;67396;42.664;23.382;2023-03-24T06:25:16;95060.88;;;11.25;53.12
78149;BME280;67396;42.664;23.382;2023-03-24T06:27:43;95064.13;;;11.66;52.63
78149;BME280;67396;42.664;23.382;2023-03-24T06:30:17;95062.53;;;11.55;53.31
78149;BME280;67396;42.664;23.382;2023-03-24T06:32:44;95064.66;;;11.00;53.86
78149;BME280;67396;42.664;23.382;2023-03-24T06:35:12;95064.88;;;10.70;55.59
78149;BME280;67396;42.664;23.382;2023-03-24T06:37:38;95073.03;;;10.59;55.36
78149;BME280;67396;42.664;23.382;2023-03-24T06:40:04;95076.53;;;10.52;55.88
78149;BME280;67396;42.664;23.382;2023-03-24T06:42:31;95079.75;;;10.62;55.26
78149;BME280;67396;42.664;23.382;2023-03-24T06:44:56;95078.06;;;10.50;56.29
78149;BME280;67396;42.664;23.382;2023-03-24T06:47:22;95077.81;;;10.69;56.41
78149;BME280;67396;42.664;23.382;2023-03-24T06:49:47;95076.75;;;11.75;52.63
78149;BME280;67396;42.664;23.382;2023-03-24T06:52:13;95066.97;;;11.84;51.40
78149;BME280;67396;42.664;23.382;2023-03-24T06:54:38;95072.00;;;11.72;52.16
78149;BME280;67396;42.664;23.382;2023-03-24T06:57:03;95067.41;;;12.11;52.10
78149;BME280;67396;42.664;23.382;2023-03-24T06:59:29;95072.06;;;12.85;49.65
78149;BME280;67396;42.664;23.382;2023-03-24T07:01:54;95070.53;;;12.34;50.17
78149;BME280;67396;42.664;23.382;2023-03-24T07:04:23;95076.78;;;12.85;48.91
78149;BME280;67396;42.664;23.382;2023-03-24T07:06:50;95070.13;;;12.82;48.58
78149;BME280;67396;42.664;23.382;2023-03-24T07:09:15;95081.50;;;12.88;49.52
78149;BME280;67396;42.664;23.382;2023-03-24T07:11:41;95085.88;;;12.64;50.65
78149;BME280;67396;42.664;23.382;2023-03-24T07:14:07;95083.13;;;12.64;48.79
78149;BME280;67396;42.664;23.382;2023-03-24T07:16:32;95087.03;;;12.91;49.10
78149;BME280;67396;42.664;23.382;2023-03-24T07:18:58;95081.13;;;12.89;48.27
78149;BME280;67396;42.664;23.382;2023-03-24T07:21:24;95092.16;;;12.54;48.65
78149;BME280;67396;42.664;23.382;2023-03-24T07:23:49;95089.81;;;12.56;50.03
78149;BME280;67396;42.664;23.382;2023-03-24T07:26:15;95090.19;;;12.79;49.65
78149;BME280;67396;42.664;23.382;2023-03-24T07:28:40;95082.66;;;12.94;49.58
78149;BME280;67396;42.664;23.382;2023-03-24T07:31:08;95089.34;;;13.25;48.25
78149;BME280;67396;42.664;23.382;2023-03-24T07:33:35;95086.09;;;13.51;48.23
78149;BME280;67396;42.664;23.382;2023-03-24T07:36:03;95083.44;;;13.19;47.93
78149;BME280;67396;42.664;23.382;2023-03-24T07:38:28;95087.06;;;12.73;49.60
78149;BME280;67396;42.664;23.382;2023-03-24T07:40:54;95083.81;;;13.21;49.07
78149;BME280;67396;42.664;23.382;2023-03-24T07:43:19;95079.78;;;14.20;46.86
78149;BME280;67396;42.664;23.382;2023-03-24T07:45:46;95081.22;;;14.87;45.47
78149;BME280;67396;42.664;23.382;2023-03-24T07:48:11;95080.81;;;14.92;45.86
78149;BME280;67396;42.664;23.382;2023-03-24T07:50:37;95066.53;;;15.34;43.33
78149;BME280;67396;42.664;23.382;2023-03-24T07:53:03;95072.56;;;15.26;43.32
78149;BME280;67396;42.664;23.382;2023-03-24T07:55:28;95073.59;;;15.73;43.33
78149;BME280;67396;42.664;23.382;2023-03-24T07:57:57;95067.22;;;16.33;40.70
78149;BME280;67396;42.664;23.382;2023-03-24T08:00:22;95075.91;;;16.08;41.04
78149;BME280;67396;42.664;23.382;2023-03-24T08:02:50;95065.38;;;16.23;41.17
78149;BME280;67396;42.664;23.382;2023-03-24T08:05:17;95059.19;;;16.39;41.68
78149;BME280;67396;42.664;23.382;2023-03-24T08:07:49;95053.78;;;16.32;40.93
78149;BME280;67396;42.664;23.382;2023-03-24T08:10:18;95055.47;;;15.99;41.97
78149;BME280;67396;42.664;23.382;2023-03-24T08:12:45;95052.53;;;16.60;41.66
78149;BME280;67396;42.664;23.382;2023-03-24T08:15:11;95058.22;;;16.26;41.56
78149;BME280;67396;42.664;23.382;2023-03-24T08:17:39;95051.44;;;16.03;41.80
78149;BME280;67396;42.664;23.382;2023-03-24T08:20:07;95054.06;;;16.64;40.64
78149;BME280;67396;42.664;23.382;2023-03-24T08:22:36;95054.56;;;17.06;39.58
78149;BME280;67396;42.664;23.382;2023-03-24T08:25:01;95049.06;;;17.42;39.22
78149;BME280;67396;42.664;23.382;2023-03-24T08:27:27;95045.78;;;17.07;39.72
78149;BME280;67396;42.664;23.382;2023-03-24T08:29:52;95038.69;;;17.06;38.93
78149;BME280;67396;42.664;23.382;2023-03-24T08:32:18;95041.53;;;17.03;39.39
78149;BME280;67396;42.664;23.382;2023-03-24T08:34:43;95038.91;;;17.35;37.88
78149;BME280;67396;42.664;23.382;2023-03-24T08:37:08;95041.47;;;17.26;38.75
78149;BME280;67396;42.664;23.382;2023-03-24T08:39:36;95033.44;;;17.71;37.88
78149;BME280;67396;42.664;23.382;2023-03-24T08:42:01;95033.22;;;17.42;37.48
78149;BME280;67396;42.664;23.382;2023-03-24T08:44:27;95033.72;;;17.17;37.37
78149;BME280;67396;42.664;23.382;2023-03-24T08:46:54;95019.25;;;16.86;38.35
78149;BME280;67396;42.664;23.382;2023-03-24T08:49:19;95022.09;;;17.03;38.21
78149;BME280;67396;42.664;23.382;2023-03-24T08:51:45;95014.66;;;16.76;38.11
78149;BME280;67396;42.664;23.382;2023-03-24T08:54:13;95010.69;;;16.27;39.83
78149;BME280;67396;42.664;23.382;2023-03-24T08:56:39;95011.84;;;16.30;39.56
78149;BME280;67396;42.664;23.382;2023-03-24T08:59:05;95013.00;;;16.32;39.45
78149;BME280;67396;42.664;23.382;2023-03-24T09:01:31;95001.81;;;15.89;40.63
78149;BME280;67396;42.664;23.382;2023-03-24T09:03:58;94999.31;;;15.37;42.31
78149;BME280;67396;42.664;23.382;2023-03-24T09:06:24;94998.56;;;15.33;42.79
78149;BME280;67396;42.664;23.382;2023-03-24T09:08:51;94987.91;;;15.01;43.62
78149;BME280;67396;42.664;23.382;2023-03-24T09:11:18;94983.56;;;15.00;44.17
78149;BME280;67396;42.664;23.382;2023-03-24T09:13:44;94990.22;;;15.06;44.31
78149;BME280;67396;42.664;23.382;2023-03-24T09:16:10;94983.97;;;14.65;45.54
78149;BME280;67396;42.664;23.382;2023-03-24T09:18:35;94982.78;;;14.62;44.93
78149;BME280;67396;42.664;23.382;2023-03-24T09:21:01;94981.72;;;14.90;43.30
78149;BME280;67396;42.664;23.382;2023-03-24T09:23:27;94984.44;;;14.94;43.40
78149;BME280;67396;42.664;23.382;2023-03-24T09:25:53;94982.88;;;14.93;42.92
78149;BME280;67396;42.664;23.382;2023-03-24T09:28:20;94981.09;;;14.76;43.43
78149;BME280;67396;42.664;23.382;2023-03-24T09:30:46;94980.09;;;14.59;43.80
78149;BME280;67396;42.664;23.382;2023-03-24T09:33:12;94977.03;;;14.46;44.41
78149;BME280;67396;42.664;23.382;2023-03-24T09:35:38;94976.56;;;14.55;43.36
78149;BME280;67396;42.664;23.382;2023-03-24T09:38:04;94969.34;;;14.64;43.25
78149;BME280;67396;42.664;23.382;2023-03-24T09:40:34;94963.03;;;14.67;43.11
78149;BME280;67396;42.664;23.382;2023-03-24T09:43:03;94958.28;;;14.68;42.29
78149;BME280;67396;42.664;23.382;2023-03-24T09:45:35;94960.38;;;14.53;43.04
78149;BME280;67396;42.664;23.382;2023-03-24T09:56:18;94944.50;;;14.64;43.72
78149;BME280;67396;42.664;23.382;2023-03-24T09:58:48;94942.06;;;14.70;44.24
78149;BME280;67396;42.664;23.382;2023-03-24T10:01:18;94936.91;;;14.72;44.22
78149;BME280;67396;42.664;23.382;2023-03-24T10:03:44;94943.47;;;14.85;43.65
78149;BME280;67396;42.664;23.382;2023-03-24T10:06:19;94936.41;;;14.81;43.93
78149;BME280;67396;42.664;23.382;2023-03-24T10:09:08;94935.91;;;14.89;43.50
78149;BME280;67396;42.664;23.382;2023-03-24T10:11:47;94932.75;;;14.91;43.13
78149;BME280;67396;42.664;23.382;2023-03-24T10:17:02;94934.13;;;15.06;43.96
78149;BME280;67396;42.664;23.382;2023-03-24T10:28:20;94923.91;;;15.03;43.88
78149;BME280;67396;42.664;23.382;2023-03-24T10:30:49;94920.31;;;15.06;43.30
78149;BME280;67396;42.664;23.382;2023-03-24T10:33:17;94915.19;;;15.04;43.70
78149;BME280;67396;42.664;23.382;2023-03-24T10:36:13;94911.91;;;15.13;42.70
78149;BME280;67396;42.664;23.382;2023-03-24T10:38:39;94911.50;;;15.15;42.37
78149;BME280;67396;42.664;23.382;2023-03-24T10:41:05;94905.25;;;15.11;41.75
78149;BME280;67396;42.664;23.382;2023-03-24T10:43:30;94903.91;;;15.22;41.85
78149;BME280;67396;42.664;23.382;2023-03-24T10:45:57;94908.84;;;15.07;42.70
78149;BME280;67396;42.664;23.382;2023-03-24T10:48:46;94903.91;;;15.22;42.91
78149;BME280;67396;42.664;23.382;2023-03-24T10:51:26;94901.47;;;15.28;42.37
78149;BME280;67396;42.664;23.382;2023-03-24T10:57:01;94899.38;;;15.35;40.58
78149;BME280;67396;42.664;23.382;2023-03-24T11:02:17;94890.16;;;15.46;40.03
78149;BME280;67396;42.664;23.382;2023-03-24T11:04:51;94890.97;;;15.42;39.99
78149;BME280;67396;42.664;23.382;2023-03-24T11:07:20;94886.28;;;15.39;39.92
78149;BME280;67396;42.664;23.382;2023-03-24T11:10:12;94888.50;;;15.48;39.06
78149;BME280;67396;42.664;23.382;2023-03-24T11:12:41;94875.06;;;15.50;38.81
78149;BME280;67396;42.664;23.382;2023-03-24T11:15:22;94879.47;;;15.48;39.09
78149;BME280;67396;42.664;23.382;2023-03-24T11:17:54;94877.88;;;15.47;38.23
78149;BME280;67396;42.664;23.382;2023-03-24T11:25:36;94857.41;;;15.67;39.79
78149;BME280;67396;42.664;23.382;2023-03-24T11:28:12;94851.97;;;15.64;39.15
78149;BME280;67396;42.664;23.382;2023-03-24T11:30:46;94847.09;;;15.71;39.06
78149;BME280;67396;42.664;23.382;2023-03-24T11:33:18;94836.03;;;15.71;39.58
78149;BME280;67396;42.664;23.382;2023-03-24T11:35:45;94837.16;;;15.74;39.54
78149;BME280;67396;42.664;23.382;2023-03-24T11:38:15;94837.03;;;15.81;39.06
78149;BME280;67396;42.664;23.382;2023-03-24T11:40:58;94834.50;;;15.90;38.70
78149;BME280;67396;42.664;23.382;2023-03-24T11:43:26;94827.28;;;15.96;38.07
78149;BME280;67396;42.664;23.382;2023-03-24T11:46:07;94826.78;;;16.01;38.43
78149;BME280;67396;42.664;23.382;2023-03-24T11:48:39;94829.13;;;16.03;37.55
78149;BME280;67396;42.664;23.382;2023-03-24T11:51:10;94820.34;;;16.08;36.41
78149;BME280;67396;42.664;23.382;2023-03-24T11:53:46;94824.19;;;16.14;36.64
78149;BME280;67396;42.664;23.382;2023-03-24T11:59:03;94815.97;;;16.30;35.79
78149;BME280;67396;42.664;23.382;2023-03-24T12:01:36;94811.56;;;16.33;34.77
78149;BME280;67396;42.664;23.382;2023-03-24T12:09:57;94807.25;;;16.32;33.43
78149;BME280;67396;42.664;23.382;2023-03-24T12:13:03;94797.31;;;16.34;33.68
78149;BME280;67396;42.664;23.382;2023-03-24T12:15:56;94798.38;;;16.40;33.73
78149;BME280;67396;42.664;23.382;2023-03-24T12:26:22;94781.34;;;16.62;33.69
78149;BME280;67396;42.664;23.382;2023-03-24T12:32:03;94773.13;;;16.74;32.96
78149;BME280;67396;42.664;23.382;2023-03-24T12:43:36;94746.66;;;16.89;32.61
78149;BME280;67396;42.664;23.382;2023-03-24T12:57:05;94734.13;;;17.17;31.69
78149;BME280;67396;42.664;23.382;2023-03-24T12:59:45;94728.41;;;17.24;31.61
78149;BME280;67396;42.664;23.382;2023-03-24T13:02:35;94714.69;;;17.34;30.12
78149;BME280;67396;42.664;23.382;2023-03-24T13:05:06;94716.19;;;17.38;30.44
78149;BME280;67396;42.664;23.382;2023-03-24T13:07:35;94716.78;;;17.46;30.59
78149;BME280;67396;42.664;23.382;2023-03-24T13:10:18;94716.78;;;17.46;29.75
78149;BME280;67396;42.664;23.382;2023-03-24T13:12:58;94708.72;;;17.51;29.60
78149;BME280;67396;42.664;23.382;2023-03-24T13:15:45;94712.63;;;17.54;29.97
78149;BME280;67396;42.664;23.382;2023-03-24T13:18:39;94711.41;;;17.55;29.46
78149;BME280;67396;42.664;23.382;2023-03-24T13:21:13;94708.53;;;17.58;28.16
78149;BME280;67396;42.664;23.382;2023-03-24T13:23:59;94706.03;;;17.64;27.56
78149;BME280;67396;42.664;23.382;2023-03-24T13:32:09;94699.09;;;17.72;27.96
78149;BME280;67396;42.664;23.382;2023-03-24T13:34:33;94691.72;;;17.65;27.84
78149;BME280;67396;42.664;23.382;2023-03-24T13:37:12;94690.53;;;17.66;27.66
78149;BME280;67396;42.664;23.382;2023-03-24T13:39:42;94689.44;;;17.60;27.05
78149;BME280;67396;42.664;23.382;2023-03-24T13:42:29;94686.78;;;17.57;26.57
78149;BME280;67396;42.664;23.382;2023-03-24T13:45:00;94680.00;;;17.58;27.15
78149;BME280;67396;42.664;23.382;2023-03-24T13:47:34;94682.69;;;17.61;26.17
78149;BME280;67396;42.664;23.382;2023-03-24T13:50:12;94673.16;;;17.62;26.70
78149;BME280;67396;42.664;23.382;2023-03-24T13:52:43;94670.00;;;17.60;26.49
78149;BME280;67396;42.664;23.382;2023-03-24T13:55:33;94675.25;;;17.58;26.53
78149;BME280;67396;42.664;23.382;2023-03-24T14:00:23;94662.56;;;17.57;27.17
78149;BME280;67396;42.664;23.382;2023-03-24T14:05:38;94662.41;;;17.64;25.90
78149;BME280;67396;42.664;23.382;2023-03-24T14:10:47;94655.28;;;17.63;25.65
78149;BME280;67396;42.664;23.382;2023-03-24T14:15:47;94650.53;;;17.64;25.77
78149;BME280;67396;42.664;23.382;2023-03-24T14:23:33;94640.09;;;17.68;25.66
78149;BME280;67396;42.664;23.382;2023-03-24T14:26:00;94644.69;;;17.75;25.25
78149;BME280;67396;42.664;23.382;2023-03-24T14:28:35;94639.47;;;17.77;25.34
78149;BME280;67396;42.664;23.382;2023-03-24T14:31:43;94639.72;;;17.82;25.58
78149;BME280;67396;42.664;23.382;2023-03-24T14:34:14;94641.72;;;17.82;26.09
78149;BME280;67396;42.664;23.382;2023-03-24T14:36:44;94639.72;;;17.82;24.90
78149;BME280;67396;42.664;23.382;2023-03-24T14:41:45;94633.66;;;18.00;25.21
78149;BME280;67396;42.664;23.382;2023-03-24T14:47:21;94636.44;;;18.00;24.85
78149;BME280;67396;42.664;23.382;2023-03-24T14:49:52;94641.44;;;18.05;25.24
78149;BME280;67396;42.664;23.382;2023-03-24T14:52:33;94634.31;;;18.04;23.97
78149;BME280;67396;42.664;23.382;2023-03-24T14:55:04;94628.75;;;18.04;23.30
78149;BME280;67396;42.664;23.382;2023-03-24T14:57:34;94631.88;;;18.06;24.21
78149;BME280;67396;42.664;23.382;2023-03-24T15:02:39;94638.13;;;18.10;24.21
78149;BME280;67396;42.664;23.382;2023-03-24T15:05:17;94632.47;;;18.14;24.22
78149;BME280;67396;42.664;23.382;2023-03-24T15:07:46;94630.38;;;18.18;24.27
78149;BME280;67396;42.664;23.382;2023-03-24T15:10:22;94635.13;;;18.17;25.04
78149;BME280;67396;42.664;23.382;2023-03-24T15:12:51;94629.25;;;18.15;26.31
78149;BME280;67396;42.664;23.382;2023-03-24T15:15:20;94626.81;;;18.17;26.72
78149;BME280;67396;42.664;23.382;2023-03-24T15:17:48;94634.59;;;18.22;25.93
78149;BME280;67396;42.664;23.382;2023-03-24T15:20:23;94627.16;;;18.19;26.84
78149;BME280;67396;42.664;23.382;2023-03-24T15:22:50;94625.25;;;18.16;26.72
78149;BME280;67396;42.664;23.382;2023-03-24T15:25:18;94627.69;;;18.14;26.90
78149;BME280;67396;42.664;23.382;2023-03-24T15:27:54;94625.13;;;18.07;26.50
78149;BME280;67396;42.664;23.382;2023-03-24T15:30:21;94626.25;;;18.10;26.06
78149;BME280;67396;42.664;23.382;2023-03-24T15:32:47;94623.13;;;18.08;26.25
78149;BME280;67396;42.664;23.382;2023-03-24T15:35:19;94626.34;;;18.06;26.06
78149;BME280;67396;42.664;23.382;2023-03-24T15:37:55;94627.66;;;18.01;26.52
78149;BME280;67396;42.664;23.382;2023-03-24T15:42:58;94626.53;;;17.99;26.43
78149;BME280;67396;42.664;23.382;2023-03-24T15:45:29;94624.97;;;17.98;25.86